sensor_id;sensor_type;location;lat;lon;timestamp;temperature;humidity
13409;DHT22;6775;49.574;11.170;2023-05-07T00:00:44;12.20;99.90
13409;DHT22;6775;49.574;11.170;2023-05-07T00:03:12;12.20;99.90
13409;DHT22;6775;49.574;11.170;2023-05-07T00:05:41;12.30;99.90
13409;DHT22;6775;49.574;11.170;2023-05-07T00:08:08;12.30;99.90
13409;DHT22;6775;49.574;11.170;2023-05-07T00:10:36;12.30;99.90
13409;DHT22;6775;49.574;11.170;2023-05-07T00:13:05;12.40;99.90
13409;DHT22;6775;49.574;11.170;2023-05-07T00:15:33;12.50;99.90
13409;DHT22;6775;49.574;11.170;2023-05-07T00:18:01;12.50;99.90
13409;DHT22;6775;49.574;11.170;2023-05-07T00:20:29;12.60;99.90
13409;DHT22;6775;49.574;11.170;2023-05-07T00:22:57;12.70;99.90
13409;DHT22;6775;49.574;11.170;2023-05-07T00:25:25;12.80;99.90
13409;DHT22;6775;49.574;11.170;2023-05-07T00:27:52;12.70;99.90
13409;DHT22;6775;49.574;11.170;2023-05-07T00:30:22;12.70;99.90
13409;DHT22;6775;49.574;11.170;2023-05-07T00:32:49;12.70;99.90
13409;DHT22;6775;49.574;11.170;2023-05-07T00:35:17;12.70;99.90
13409;DHT22;6775;49.574;11.170;2023-05-07T00:37:45;12.60;99.90
13409;DHT22;6775;49.574;11.170;2023-05-07T00:40:14;12.70;99.90
13409;DHT22;6775;49.574;11.170;2023-05-07T00:42:42;12.70;99.90
13409;DHT22;6775;49.574;11.170;2023-05-07T00:45:14;12.70;99.90
13409;DHT22;6775;49.574;11.170;2023-05-07T00:47:43;12.60;99.90
13409;DHT22;6775;49.574;11.170;2023-05-07T00:50:11;12.70;99.90
13409;DHT22;6775;49.574;11.170;2023-05-07T00:52:40;12.70;99.90
13409;DHT22;6775;49.574;11.170;2023-05-07T00:55:09;12.70;99.90
13409;DHT22;6775;49.574;11.170;2023-05-07T00:57:40;12.60;99.90
13409;DHT22;6775;49.574;11.170;2023-05-07T01:00:09;12.60;99.90
13409;DHT22;6775;49.574;11.170;2023-05-07T01:02:39;12.60;99.90
13409;DHT22;6775;49.574;11.170;2023-05-07T01:05:10;12.60;99.90
13409;DHT22;6775;49.574;11.170;2023-05-07T01:07:40;12.70;99.90
13409;DHT22;6775;49.574;11.170;2023-05-07T01:10:09;12.70;99.90
13409;DHT22;6775;49.574;11.170;2023-05-07T01:12:39;12.70;99.90
13409;DHT22;6775;49.574;11.170;2023-05-07T01:15:08;12.70;99.90
13409;DHT22;6775;49.574;11.170;2023-05-07T01:17:37;12.70;99.90
13409;DHT22;6775;49.574;11.170;2023-05-07T01:20:06;12.70;99.90
13409;DHT22;6775;49.574;11.170;2023-05-07T01:22:37;12.60;99.90
13409;DHT22;6775;49.574;11.170;2023-05-07T01:25:07;12.60;99.90
13409;DHT22;6775;49.574;11.170;2023-05-07T01:27:35;12.60;99.90
13409;DHT22;6775;49.574;11.170;2023-05-07T01:30:04;12.60;99.90
13409;DHT22;6775;49.574;11.170;2023-05-07T01:32:36;12.60;99.90
13409;DHT22;6775;49.574;11.170;2023-05-07T01:35:09;12.70;99.90
13409;DHT22;6775;49.574;11.170;2023-05-07T01:37:40;12.70;99.90
13409;DHT22;6775;49.574;11.170;2023-05-07T01:40:09;12.70;99.90
13409;DHT22;6775;49.574;11.170;2023-05-07T01:42:38;12.70;99.90
13409;DHT22;6775;49.574;11.170;2023-05-07T01:45:07;12.70;99.90
13409;DHT22;6775;49.574;11.170;2023-05-07T01:47:36;12.70;99.90
13409;DHT22;6775;49.574;11.170;2023-05-07T01:50:06;12.70;99.90
13409;DHT22;6775;49.574;11.170;2023-05-07T01:52:35;12.70;99.90
13409;DHT22;6775;49.574;11.170;2023-05-07T01:55:06;12.80;99.90
13409;DHT22;6775;49.574;11.170;2023-05-07T01:57:34;12.70;99.90
13409;DHT22;6775;49.574;11.170;2023-05-07T02:00:02;12.80;99.90
13409;DHT22;6775;49.574;11.170;2023-05-07T02:02:32;12.70;99.90
13409;DHT22;6775;49.574;11.170;2023-05-07T02:05:00;12.80;99.90
13409;DHT22;6775;49.574;11.170;2023-05-07T02:07:28;12.80;99.90
13409;DHT22;6775;49.574;11.170;2023-05-07T02:09:56;12.80;99.90
13409;DHT22;6775;49.574;11.170;2023-05-07T02:12:25;12.80;99.90
13409;DHT22;6775;49.574;11.170;2023-05-07T02:14:53;12.80;99.90
13409;DHT22;6775;49.574;11.170;2023-05-07T02:17:21;12.80;99.90
13409;DHT22;6775;49.574;11.170;2023-05-07T02:19:48;12.80;99.90
13409;DHT22;6775;49.574;11.170;2023-05-07T02:22:16;12.80;99.90
13409;DHT22;6775;49.574;11.170;2023-05-07T02:24:44;12.80;99.90
13409;DHT22;6775;49.574;11.170;2023-05-07T02:27:12;12.80;99.90
13409;DHT22;6775;49.574;11.170;2023-05-07T02:29:41;12.90;99.90
13409;DHT22;6775;49.574;11.170;2023-05-07T02:32:09;12.80;99.90
13409;DHT22;6775;49.574;11.170;2023-05-07T02:34:37;12.80;99.90
13409;DHT22;6775;49.574;11.170;2023-05-07T02:37:04;12.80;99.90
13409;DHT22;6775;49.574;11.170;2023-05-07T02:39:32;12.80;99.90
13409;DHT22;6775;49.574;11.170;2023-05-07T02:42:01;12.80;99.90
13409;DHT22;6775;49.574;11.170;2023-05-07T02:44:29;12.80;99.90
13409;DHT22;6775;49.574;11.170;2023-05-07T02:46:59;12.80;99.90
13409;DHT22;6775;49.574;11.170;2023-05-07T02:49:27;12.80;99.90
13409;DHT22;6775;49.574;11.170;2023-05-07T02:51:54;12.70;99.90
13409;DHT22;6775;49.574;11.170;2023-05-07T02:54:22;12.80;99.90
13409;DHT22;6775;49.574;11.170;2023-05-07T02:56:50;12.70;99.90
13409;DHT22;6775;49.574;11.170;2023-05-07T02:59:18;12.70;99.90
13409;DHT22;6775;49.574;11.170;2023-05-07T03:01:46;12.70;99.90
13409;DHT22;6775;49.574;11.170;2023-05-07T03:04:16;12.60;99.90
13409;DHT22;6775;49.574;11.170;2023-05-07T03:06:44;12.60;99.90
13409;DHT22;6775;49.574;11.170;2023-05-07T03:09:11;12.60;99.90
13409;DHT22;6775;49.574;11.170;2023-05-07T03:11:39;12.60;99.90
13409;DHT22;6775;49.574;11.170;2023-05-07T03:14:07;12.60;99.90
13409;DHT22;6775;49.574;11.170;2023-05-07T03:16:35;12.50;99.90
13409;DHT22;6775;49.574;11.170;2023-05-07T03:19:03;12.50;99.90
13409;DHT22;6775;49.574;11.170;2023-05-07T03:21:32;12.40;99.90
13409;DHT22;6775;49.574;11.170;2023-05-07T03:24:01;12.30;99.90
13409;DHT22;6775;49.574;11.170;2023-05-07T03:26:29;12.30;99.90
13409;DHT22;6775;49.574;11.170;2023-05-07T03:28:56;12.30;99.90
13409;DHT22;6775;49.574;11.170;2023-05-07T03:31:24;12.20;99.90
13409;DHT22;6775;49.574;11.170;2023-05-07T03:33:53;12.20;99.90
13409;DHT22;6775;49.574;11.170;2023-05-07T03:36:22;12.20;99.90
13409;DHT22;6775;49.574;11.170;2023-05-07T03:38:51;12.10;99.90
13409;DHT22;6775;49.574;11.170;2023-05-07T03:41:19;12.10;99.90
13409;DHT22;6775;49.574;11.170;2023-05-07T03:43:47;12.00;99.90
13409;DHT22;6775;49.574;11.170;2023-05-07T03:46:15;12.00;99.90
13409;DHT22;6775;49.574;11.170;2023-05-07T03:48:42;12.00;99.90
13409;DHT22;6775;49.574;11.170;2023-05-07T03:51:10;11.90;99.90
13409;DHT22;6775;49.574;11.170;2023-05-07T03:53:38;11.80;99.90
13409;DHT22;6775;49.574;11.170;2023-05-07T03:56:07;11.80;99.90
13409;DHT22;6775;49.574;11.170;2023-05-07T03:58:35;11.80;99.90
13409;DHT22;6775;49.574;11.170;2023-05-07T04:01:03;11.80;99.90
13409;DHT22;6775;49.574;11.170;2023-05-07T04:03:31;11.80;99.90
13409;DHT22;6775;49.574;11.170;2023-05-07T04:05:59;11.80;99.90
13409;DHT22;6775;49.574;11.170;2023-05-07T04:08:27;11.80;99.90
13409;DHT22;6775;49.574;11.170;2023-05-07T04:10:55;11.80;99.90
13409;DHT22;6775;49.574;11.170;2023-05-07T04:13:24;11.80;99.90
13409;DHT22;6775;49.574;11.170;2023-05-07T04:15:53;11.80;99.90
13409;DHT22;6775;49.574;11.170;2023-05-07T04:18:21;11.80;99.90
13409;DHT22;6775;49.574;11.170;2023-05-07T04:20:49;11.80;99.90
13409;DHT22;6775;49.574;11.170;2023-05-07T04:23:17;11.80;99.90
13409;DHT22;6775;49.574;11.170;2023-05-07T04:25:45;11.80;99.90
13409;DHT22;6775;49.574;11.170;2023-05-07T04:28:12;11.80;99.90
13409;DHT22;6775;49.574;11.170;2023-05-07T04:30:41;11.80;99.90
13409;DHT22;6775;49.574;11.170;2023-05-07T04:33:09;11.80;99.90
13409;DHT22;6775;49.574;11.170;2023-05-07T04:35:38;11.80;99.90
13409;DHT22;6775;49.574;11.170;2023-05-07T04:38:06;11.90;99.90
13409;DHT22;6775;49.574;11.170;2023-05-07T04:40:35;11.90;99.90
13409;DHT22;6775;49.574;11.170;2023-05-07T04:43:03;12.00;99.90
13409;DHT22;6775;49.574;11.170;2023-05-07T04:45:32;12.00;99.90
13409;DHT22;6775;49.574;11.170;2023-05-07T04:48:01;12.10;99.90
13409;DHT22;6775;49.574;11.170;2023-05-07T04:50:29;12.20;99.90
13409;DHT22;6775;49.574;11.170;2023-05-07T04:52:57;12.30;99.90
13409;DHT22;6775;49.574;11.170;2023-05-07T04:55:25;12.30;99.90
13409;DHT22;6775;49.574;11.170;2023-05-07T04:57:53;12.40;99.90
13409;DHT22;6775;49.574;11.170;2023-05-07T05:00:21;12.50;99.90
13409;DHT22;6775;49.574;11.170;2023-05-07T05:02:49;12.60;99.90
13409;DHT22;6775;49.574;11.170;2023-05-07T05:05:19;12.70;99.90
13409;DHT22;6775;49.574;11.170;2023-05-07T05:07:47;12.80;99.90
13409;DHT22;6775;49.574;11.170;2023-05-07T05:10:14;12.90;99.90
13409;DHT22;6775;49.574;11.170;2023-05-07T05:12:42;13.00;99.90
13409;DHT22;6775;49.574;11.170;2023-05-07T05:15:11;13.20;99.90
13409;DHT22;6775;49.574;11.170;2023-05-07T05:17:39;13.20;99.90
13409;DHT22;6775;49.574;11.170;2023-05-07T05:20:07;13.30;99.90
13409;DHT22;6775;49.574;11.170;2023-05-07T05:22:39;13.40;99.90
13409;DHT22;6775;49.574;11.170;2023-05-07T05:25:07;13.50;99.90
13409;DHT22;6775;49.574;11.170;2023-05-07T05:27:35;13.50;99.90
13409;DHT22;6775;49.574;11.170;2023-05-07T05:30:04;13.50;99.90
13409;DHT22;6775;49.574;11.170;2023-05-07T05:32:32;13.60;99.90
13409;DHT22;6775;49.574;11.170;2023-05-07T05:35:00;13.70;99.90
13409;DHT22;6775;49.574;11.170;2023-05-07T05:37:28;13.70;99.90
13409;DHT22;6775;49.574;11.170;2023-05-07T05:39:58;13.80;99.90
13409;DHT22;6775;49.574;11.170;2023-05-07T05:42:25;13.80;99.90
13409;DHT22;6775;49.574;11.170;2023-05-07T05:44:53;13.80;99.90
13409;DHT22;6775;49.574;11.170;2023-05-07T05:47:22;13.90;99.90
13409;DHT22;6775;49.574;11.170;2023-05-07T05:49:50;13.90;99.90
13409;DHT22;6775;49.574;11.170;2023-05-07T05:52:18;13.90;99.90
13409;DHT22;6775;49.574;11.170;2023-05-07T05:54:46;13.90;99.90
13409;DHT22;6775;49.574;11.170;2023-05-07T05:57:15;14.00;99.90
13409;DHT22;6775;49.574;11.170;2023-05-07T05:59:43;14.00;99.90
13409;DHT22;6775;49.574;11.170;2023-05-07T06:02:11;14.00;99.90
13409;DHT22;6775;49.574;11.170;2023-05-07T06:04:39;14.20;99.90
13409;DHT22;6775;49.574;11.170;2023-05-07T06:07:07;14.20;99.90
13409;DHT22;6775;49.574;11.170;2023-05-07T06:09:35;14.40;99.90
13409;DHT22;6775;49.574;11.170;2023-05-07T06:12:03;14.40;99.90
13409;DHT22;6775;49.574;11.170;2023-05-07T06:14:32;14.40;99.90
13409;DHT22;6775;49.574;11.170;2023-05-07T06:17:00;14.50;99.90
13409;DHT22;6775;49.574;11.170;2023-05-07T06:19:28;14.50;99.90
13409;DHT22;6775;49.574;11.170;2023-05-07T06:21:56;14.60;99.90
13409;DHT22;6775;49.574;11.170;2023-05-07T06:24:24;14.70;99.90
13409;DHT22;6775;49.574;11.170;2023-05-07T06:26:52;14.80;99.90
13409;DHT22;6775;49.574;11.170;2023-05-07T06:29:20;14.90;99.90
13409;DHT22;6775;49.574;11.170;2023-05-07T06:31:49;15.00;99.90
13409;DHT22;6775;49.574;11.170;2023-05-07T06:34:17;15.10;99.90
13409;DHT22;6775;49.574;11.170;2023-05-07T06:36:45;15.20;99.90
13409;DHT22;6775;49.574;11.170;2023-05-07T06:39:12;15.10;99.90
13409;DHT22;6775;49.574;11.170;2023-05-07T06:41:40;15.10;99.90
13409;DHT22;6775;49.574;11.170;2023-05-07T06:44:08;15.10;99.90
13409;DHT22;6775;49.574;11.170;2023-05-07T06:46:36;15.20;99.90
13409;DHT22;6775;49.574;11.170;2023-05-07T06:49:05;15.10;99.90
13409;DHT22;6775;49.574;11.170;2023-05-07T06:51:33;15.10;99.90
13409;DHT22;6775;49.574;11.170;2023-05-07T06:54:01;15.10;99.90
13409;DHT22;6775;49.574;11.170;2023-05-07T06:56:31;15.10;99.90
13409;DHT22;6775;49.574;11.170;2023-05-07T06:58:59;15.00;99.90
13409;DHT22;6775;49.574;11.170;2023-05-07T07:01:28;15.10;99.90
13409;DHT22;6775;49.574;11.170;2023-05-07T07:03:56;15.10;99.90
13409;DHT22;6775;49.574;11.170;2023-05-07T07:06:25;15.10;99.90
13409;DHT22;6775;49.574;11.170;2023-05-07T07:08:53;15.10;99.90
13409;DHT22;6775;49.574;11.170;2023-05-07T07:11:21;15.10;99.90
13409;DHT22;6775;49.574;11.170;2023-05-07T07:13:49;15.30;99.90
13409;DHT22;6775;49.574;11.170;2023-05-07T07:16:17;15.40;99.90
13409;DHT22;6775;49.574;11.170;2023-05-07T07:18:44;15.70;99.90
13409;DHT22;6775;49.574;11.170;2023-05-07T07:21:12;15.70;99.90
13409;DHT22;6775;49.574;11.170;2023-05-07T07:23:41;16.00;99.90
13409;DHT22;6775;49.574;11.170;2023-05-07T07:26:09;16.30;99.90
13409;DHT22;6775;49.574;11.170;2023-05-07T07:28:42;16.50;99.90
13409;DHT22;6775;49.574;11.170;2023-05-07T07:31:11;16.70;99.90
13409;DHT22;6775;49.574;11.170;2023-05-07T07:33:39;16.90;99.90
13409;DHT22;6775;49.574;11.170;2023-05-07T07:36:07;17.00;99.90
13409;DHT22;6775;49.574;11.170;2023-05-07T07:38:35;17.20;99.90
13409;DHT22;6775;49.574;11.170;2023-05-07T07:41:04;17.20;99.90
13409;DHT22;6775;49.574;11.170;2023-05-07T07:43:32;17.30;99.90
13409;DHT22;6775;49.574;11.170;2023-05-07T07:46:00;17.30;99.90
13409;DHT22;6775;49.574;11.170;2023-05-07T07:48:28;17.40;99.90
13409;DHT22;6775;49.574;11.170;2023-05-07T07:50:55;17.50;99.90
13409;DHT22;6775;49.574;11.170;2023-05-07T07:53:23;17.60;99.90
13409;DHT22;6775;49.574;11.170;2023-05-07T07:55:51;18.00;99.90
13409;DHT22;6775;49.574;11.170;2023-05-07T07:58:26;18.00;99.90
13409;DHT22;6775;49.574;11.170;2023-05-07T08:00:54;18.10;99.90
13409;DHT22;6775;49.574;11.170;2023-05-07T08:03:22;18.10;99.90
13409;DHT22;6775;49.574;11.170;2023-05-07T08:05:51;18.20;99.90
13409;DHT22;6775;49.574;11.170;2023-05-07T08:08:18;18.10;99.90
13409;DHT22;6775;49.574;11.170;2023-05-07T08:10:46;18.10;99.90
13409;DHT22;6775;49.574;11.170;2023-05-07T08:13:17;18.10;99.90
13409;DHT22;6775;49.574;11.170;2023-05-07T08:15:46;18.00;99.90
13409;DHT22;6775;49.574;11.170;2023-05-07T08:18:14;18.10;99.90
13409;DHT22;6775;49.574;11.170;2023-05-07T08:20:42;18.20;99.90
13409;DHT22;6775;49.574;11.170;2023-05-07T08:23:09;18.20;99.90
13409;DHT22;6775;49.574;11.170;2023-05-07T08:25:37;18.10;99.90
13409;DHT22;6775;49.574;11.170;2023-05-07T08:28:05;18.10;99.90
13409;DHT22;6775;49.574;11.170;2023-05-07T08:30:35;18.00;99.90
13409;DHT22;6775;49.574;11.170;2023-05-07T08:33:05;18.00;99.90
13409;DHT22;6775;49.574;11.170;2023-05-07T08:35:32;18.00;99.90
13409;DHT22;6775;49.574;11.170;2023-05-07T08:38:00;18.00;99.90
13409;DHT22;6775;49.574;11.170;2023-05-07T08:40:28;18.00;99.90
13409;DHT22;6775;49.574;11.170;2023-05-07T08:42:57;18.10;99.90
13409;DHT22;6775;49.574;11.170;2023-05-07T08:45:26;18.00;99.90
13409;DHT22;6775;49.574;11.170;2023-05-07T08:47:59;18.10;99.90
13409;DHT22;6775;49.574;11.170;2023-05-07T08:50:29;18.10;99.90
13409;DHT22;6775;49.574;11.170;2023-05-07T08:52:57;18.20;99.90
13409;DHT22;6775;49.574;11.170;2023-05-07T08:55:25;18.20;99.90
13409;DHT22;6775;49.574;11.170;2023-05-07T08:57:53;18.20;99.90
13409;DHT22;6775;49.574;11.170;2023-05-07T09:00:21;18.30;99.90
13409;DHT22;6775;49.574;11.170;2023-05-07T09:02:48;18.50;99.90
13409;DHT22;6775;49.574;11.170;2023-05-07T09:05:16;18.90;99.90
13409;DHT22;6775;49.574;11.170;2023-05-07T09:07:46;19.20;99.90
13409;DHT22;6775;49.574;11.170;2023-05-07T09:10:16;19.50;99.90
13409;DHT22;6775;49.574;11.170;2023-05-07T09:12:46;19.60;99.90
13409;DHT22;6775;49.574;11.170;2023-05-07T09:15:14;19.70;99.90
13409;DHT22;6775;49.574;11.170;2023-05-07T09:17:43;19.80;99.90
13409;DHT22;6775;49.574;11.170;2023-05-07T09:20:11;20.00;99.90
13409;DHT22;6775;49.574;11.170;2023-05-07T09:22:39;20.30;99.90
13409;DHT22;6775;49.574;11.170;2023-05-07T09:25:09;20.50;99.90
13409;DHT22;6775;49.574;11.170;2023-05-07T09:27:37;20.50;99.90
13409;DHT22;6775;49.574;11.170;2023-05-07T09:30:06;20.50;99.90
13409;DHT22;6775;49.574;11.170;2023-05-07T09:32:35;20.50;99.90
13409;DHT22;6775;49.574;11.170;2023-05-07T09:35:05;20.30;99.90
13409;DHT22;6775;49.574;11.170;2023-05-07T09:37:33;20.20;99.90
13409;DHT22;6775;49.574;11.170;2023-05-07T09:40:01;20.20;99.90
13409;DHT22;6775;49.574;11.170;2023-05-07T09:42:32;20.30;99.90
13409;DHT22;6775;49.574;11.170;2023-05-07T09:45:00;20.30;99.90
13409;DHT22;6775;49.574;11.170;2023-05-07T09:47:32;20.30;99.90
13409;DHT22;6775;49.574;11.170;2023-05-07T09:50:03;20.40;99.90
13409;DHT22;6775;49.574;11.170;2023-05-07T09:52:33;20.60;99.90
13409;DHT22;6775;49.574;11.170;2023-05-07T09:55:02;20.70;99.90
13409;DHT22;6775;49.574;11.170;2023-05-07T09:57:34;20.80;99.90
13409;DHT22;6775;49.574;11.170;2023-05-07T10:00:03;21.00;99.90
13409;DHT22;6775;49.574;11.170;2023-05-07T10:02:34;21.20;99.90
13409;DHT22;6775;49.574;11.170;2023-05-07T10:05:03;21.60;99.90
13409;DHT22;6775;49.574;11.170;2023-05-07T10:07:31;22.10;99.90
13409;DHT22;6775;49.574;11.170;2023-05-07T10:10:00;22.40;99.90
13409;DHT22;6775;49.574;11.170;2023-05-07T10:12:28;22.50;99.90
13409;DHT22;6775;49.574;11.170;2023-05-07T10:14:58;22.50;99.90
13409;DHT22;6775;49.574;11.170;2023-05-07T10:17:26;22.40;99.90
13409;DHT22;6775;49.574;11.170;2023-05-07T10:19:54;22.20;99.90
13409;DHT22;6775;49.574;11.170;2023-05-07T10:22:24;21.90;99.90
13409;DHT22;6775;49.574;11.170;2023-05-07T10:24:53;21.70;99.90
13409;DHT22;6775;49.574;11.170;2023-05-07T10:27:25;21.70;99.90
13409;DHT22;6775;49.574;11.170;2023-05-07T10:30:00;21.70;99.90
13409;DHT22;6775;49.574;11.170;2023-05-07T10:32:37;21.80;99.90
13409;DHT22;6775;49.574;11.170;2023-05-07T10:35:10;22.00;99.90
13409;DHT22;6775;49.574;11.170;2023-05-07T10:37:39;22.10;99.90
13409;DHT22;6775;49.574;11.170;2023-05-07T10:40:09;22.20;99.90
13409;DHT22;6775;49.574;11.170;2023-05-07T10:42:37;22.40;99.90
13409;DHT22;6775;49.574;11.170;2023-05-07T10:45:15;22.40;99.90
13409;DHT22;6775;49.574;11.170;2023-05-07T10:48:06;22.20;99.90
13409;DHT22;6775;49.574;11.170;2023-05-07T10:51:19;22.00;99.90
13409;DHT22;6775;49.574;11.170;2023-05-07T10:53:47;21.90;99.90
13409;DHT22;6775;49.574;11.170;2023-05-07T10:56:25;22.00;99.90
13409;DHT22;6775;49.574;11.170;2023-05-07T10:58:55;22.00;99.90
13409;DHT22;6775;49.574;11.170;2023-05-07T11:01:54;22.00;99.90
13409;DHT22;6775;49.574;11.170;2023-05-07T11:04:22;21.90;99.90
13409;DHT22;6775;49.574;11.170;2023-05-07T11:07:24;21.90;99.90
13409;DHT22;6775;49.574;11.170;2023-05-07T11:10:05;22.00;99.90
13409;DHT22;6775;49.574;11.170;2023-05-07T11:12:53;21.90;99.90
13409;DHT22;6775;49.574;11.170;2023-05-07T11:15:40;21.70;99.90
13409;DHT22;6775;49.574;11.170;2023-05-07T11:18:12;21.80;99.90
13409;DHT22;6775;49.574;11.170;2023-05-07T11:20:48;22.10;99.90
13409;DHT22;6775;49.574;11.170;2023-05-07T11:26:47;22.40;99.90
13409;DHT22;6775;49.574;11.170;2023-05-07T11:29:17;22.30;99.90
13409;DHT22;6775;49.574;11.170;2023-05-07T11:31:49;22.10;99.90
13409;DHT22;6775;49.574;11.170;2023-05-07T11:34:22;22.20;99.90
13409;DHT22;6775;49.574;11.170;2023-05-07T11:36:51;22.40;99.90
13409;DHT22;6775;49.574;11.170;2023-05-07T11:39:30;22.70;99.90
13409;DHT22;6775;49.574;11.170;2023-05-07T11:41:59;22.90;99.90
13409;DHT22;6775;49.574;11.170;2023-05-07T11:44:41;22.90;99.90
13409;DHT22;6775;49.574;11.170;2023-05-07T11:47:10;23.00;99.90
13409;DHT22;6775;49.574;11.170;2023-05-07T11:49:39;23.20;99.90
13409;DHT22;6775;49.574;11.170;2023-05-07T11:52:08;23.40;99.50
13409;DHT22;6775;49.574;11.170;2023-05-07T11:54:36;23.30;99.90
13409;DHT22;6775;49.574;11.170;2023-05-07T11:57:04;23.30;99.90
13409;DHT22;6775;49.574;11.170;2023-05-07T11:59:38;23.30;99.10
13409;DHT22;6775;49.574;11.170;2023-05-07T12:02:07;23.30;98.70
13409;DHT22;6775;49.574;11.170;2023-05-07T12:04:35;23.30;99.90
13409;DHT22;6775;49.574;11.170;2023-05-07T12:07:04;23.30;98.90
13409;DHT22;6775;49.574;11.170;2023-05-07T12:09:32;23.40;98.90
13409;DHT22;6775;49.574;11.170;2023-05-07T12:12:03;23.30;96.90
13409;DHT22;6775;49.574;11.170;2023-05-07T12:14:31;23.20;97.00
13409;DHT22;6775;49.574;11.170;2023-05-07T12:17:01;23.20;97.40
13409;DHT22;6775;49.574;11.170;2023-05-07T12:19:30;23.20;97.50
13409;DHT22;6775;49.574;11.170;2023-05-07T12:21:58;23.30;96.70
13409;DHT22;6775;49.574;11.170;2023-05-07T12:24:27;23.40;96.40
13409;DHT22;6775;49.574;11.170;2023-05-07T12:26:55;23.50;97.00
13409;DHT22;6775;49.574;11.170;2023-05-07T12:29:23;23.50;97.30
13409;DHT22;6775;49.574;11.170;2023-05-07T12:31:51;23.70;98.10
13409;DHT22;6775;49.574;11.170;2023-05-07T12:34:19;23.70;98.20
13409;DHT22;6775;49.574;11.170;2023-05-07T12:36:48;23.70;96.40
13409;DHT22;6775;49.574;11.170;2023-05-07T12:39:15;23.70;97.50
13409;DHT22;6775;49.574;11.170;2023-05-07T12:41:54;23.70;98.50
13409;DHT22;6775;49.574;11.170;2023-05-07T12:44:22;23.90;97.90
13409;DHT22;6775;49.574;11.170;2023-05-07T12:46:51;23.90;95.30
13409;DHT22;6775;49.574;11.170;2023-05-07T12:49:19;23.90;96.60
13409;DHT22;6775;49.574;11.170;2023-05-07T12:51:50;23.80;93.50
13409;DHT22;6775;49.574;11.170;2023-05-07T12:54:28;23.70;94.60
13409;DHT22;6775;49.574;11.170;2023-05-07T12:57:05;23.60;95.30
13409;DHT22;6775;49.574;11.170;2023-05-07T12:59:34;23.50;96.10
13409;DHT22;6775;49.574;11.170;2023-05-07T13:02:02;23.50;96.50
13409;DHT22;6775;49.574;11.170;2023-05-07T13:04:30;23.70;96.90
13409;DHT22;6775;49.574;11.170;2023-05-07T13:06:58;23.80;97.10
13409;DHT22;6775;49.574;11.170;2023-05-07T13:09:26;23.90;96.20
13409;DHT22;6775;49.574;11.170;2023-05-07T13:11:55;23.90;94.90
13409;DHT22;6775;49.574;11.170;2023-05-07T13:14:24;23.90;95.40
13409;DHT22;6775;49.574;11.170;2023-05-07T13:16:52;24.00;96.10
13409;DHT22;6775;49.574;11.170;2023-05-07T13:19:20;24.00;94.80
13409;DHT22;6775;49.574;11.170;2023-05-07T13:21:48;24.10;95.60
13409;DHT22;6775;49.574;11.170;2023-05-07T13:24:16;24.00;95.50
13409;DHT22;6775;49.574;11.170;2023-05-07T13:26:44;24.00;96.20
13409;DHT22;6775;49.574;11.170;2023-05-07T13:29:12;23.90;95.50
13409;DHT22;6775;49.574;11.170;2023-05-07T13:31:41;23.90;94.90
13409;DHT22;6775;49.574;11.170;2023-05-07T13:34:10;23.80;94.60
13409;DHT22;6775;49.574;11.170;2023-05-07T13:36:38;23.60;95.30
13409;DHT22;6775;49.574;11.170;2023-05-07T13:39:08;23.50;93.50
13409;DHT22;6775;49.574;11.170;2023-05-07T13:41:36;23.50;95.30
13409;DHT22;6775;49.574;11.170;2023-05-07T13:44:04;23.40;94.80
13409;DHT22;6775;49.574;11.170;2023-05-07T13:46:31;23.20;95.30
13409;DHT22;6775;49.574;11.170;2023-05-07T13:49:01;23.20;95.50
13409;DHT22;6775;49.574;11.170;2023-05-07T13:51:28;23.10;95.40
13409;DHT22;6775;49.574;11.170;2023-05-07T13:53:56;23.10;95.40
13409;DHT22;6775;49.574;11.170;2023-05-07T13:56:25;23.10;95.50
13409;DHT22;6775;49.574;11.170;2023-05-07T13:58:52;23.20;96.60
13409;DHT22;6775;49.574;11.170;2023-05-07T14:01:26;23.30;95.80
13409;DHT22;6775;49.574;11.170;2023-05-07T14:03:55;23.30;94.80
13409;DHT22;6775;49.574;11.170;2023-05-07T14:06:25;23.20;95.10
13409;DHT22;6775;49.574;11.170;2023-05-07T14:08:53;23.10;94.70
13409;DHT22;6775;49.574;11.170;2023-05-07T14:11:20;23.10;95.60
13409;DHT22;6775;49.574;11.170;2023-05-07T14:13:48;23.00;93.60
13409;DHT22;6775;49.574;11.170;2023-05-07T14:16:16;22.90;94.20
13409;DHT22;6775;49.574;11.170;2023-05-07T14:18:44;23.10;93.20
13409;DHT22;6775;49.574;11.170;2023-05-07T14:21:12;23.10;93.40
13409;DHT22;6775;49.574;11.170;2023-05-07T14:23:41;23.10;94.00
13409;DHT22;6775;49.574;11.170;2023-05-07T14:26:09;23.00;94.80
13409;DHT22;6775;49.574;11.170;2023-05-07T14:28:37;23.10;93.80
13409;DHT22;6775;49.574;11.170;2023-05-07T14:31:06;23.10;94.10
13409;DHT22;6775;49.574;11.170;2023-05-07T14:33:33;23.00;93.90
13409;DHT22;6775;49.574;11.170;2023-05-07T14:36:01;22.70;93.30
13409;DHT22;6775;49.574;11.170;2023-05-07T14:38:30;22.40;93.80
13409;DHT22;6775;49.574;11.170;2023-05-07T14:41:00;22.30;94.50
13409;DHT22;6775;49.574;11.170;2023-05-07T14:43:28;22.10;95.30
13409;DHT22;6775;49.574;11.170;2023-05-07T14:45:56;22.10;93.70
13409;DHT22;6775;49.574;11.170;2023-05-07T14:48:24;22.00;93.60
13409;DHT22;6775;49.574;11.170;2023-05-07T14:50:51;22.10;94.90
13409;DHT22;6775;49.574;11.170;2023-05-07T14:53:19;22.20;96.00
13409;DHT22;6775;49.574;11.170;2023-05-07T14:55:48;22.20;94.90
13409;DHT22;6775;49.574;11.170;2023-05-07T14:58:17;22.10;94.00
13409;DHT22;6775;49.574;11.170;2023-05-07T15:00:45;22.00;94.50
13409;DHT22;6775;49.574;11.170;2023-05-07T15:03:13;21.90;94.90
13409;DHT22;6775;49.574;11.170;2023-05-07T15:05:41;21.90;94.70
13409;DHT22;6775;49.574;11.170;2023-05-07T15:08:09;21.90;93.70
13409;DHT22;6775;49.574;11.170;2023-05-07T15:10:38;21.90;94.20
13409;DHT22;6775;49.574;11.170;2023-05-07T15:13:08;21.80;94.00
13409;DHT22;6775;49.574;11.170;2023-05-07T15:15:43;21.90;94.10
13409;DHT22;6775;49.574;11.170;2023-05-07T15:18:12;21.80;95.60
13409;DHT22;6775;49.574;11.170;2023-05-07T15:20:40;21.80;94.30
13409;DHT22;6775;49.574;11.170;2023-05-07T15:23:08;21.70;94.60
13409;DHT22;6775;49.574;11.170;2023-05-07T15:25:38;21.60;95.10
13409;DHT22;6775;49.574;11.170;2023-05-07T15:28:06;21.50;95.20
13409;DHT22;6775;49.574;11.170;2023-05-07T15:30:34;21.40;95.90
13409;DHT22;6775;49.574;11.170;2023-05-07T15:33:03;21.30;96.80
13409;DHT22;6775;49.574;11.170;2023-05-07T15:35:32;21.40;97.20
13409;DHT22;6775;49.574;11.170;2023-05-07T15:38:00;21.40;96.10
13409;DHT22;6775;49.574;11.170;2023-05-07T15:40:30;21.40;95.90
13409;DHT22;6775;49.574;11.170;2023-05-07T15:42:57;21.40;94.30
13409;DHT22;6775;49.574;11.170;2023-05-07T15:45:25;21.40;94.80